createdAt,value
2018-04-16T00:02:16.746Z,12.47
2018-04-16T00:04:44.187Z,11.50
2018-04-16T00:07:11.654Z,12.73
2018-04-16T00:09:39.083Z,11.57
2018-04-16T00:12:07.298Z,11.70
2018-04-16T00:14:34.739Z,11.00
2018-04-16T00:17:02.205Z,15.60
2018-04-16T00:19:29.784Z,13.43
2018-04-16T00:21:57.247Z,11.57
2018-04-16T00:24:24.691Z,12.17
2018-04-16T00:26:52.135Z,11.13
2018-04-16T00:29:20.359Z,13.90
2018-04-16T00:31:53.481Z,14.03
2018-04-16T00:34:26.731Z,13.00
2018-04-16T00:37:11.906Z,15.00
2018-04-16T00:39:45.062Z,12.00
2018-04-16T00:42:19.035Z,10.67
2018-04-16T00:44:52.300Z,13.70
2018-04-16T00:47:25.391Z,11.43
2018-04-16T00:49:58.550Z,12.63
2018-04-16T00:52:31.652Z,12.63
2018-04-16T00:55:04.859Z,11.17
2018-04-16T00:57:38.049Z,12.93
2018-04-16T01:00:11.327Z,14.40
2018-04-16T01:02:44.540Z,17.63
2018-04-16T01:05:17.568Z,12.33
2018-04-16T01:07:50.705Z,11.80
2018-04-16T01:10:23.909Z,12.70
2018-04-16T01:12:56.970Z,10.60
2018-04-16T01:15:30.155Z,12.13
2018-04-16T01:18:03.911Z,12.63
2018-04-16T01:20:37.098Z,11.57
2018-04-16T01:23:10.168Z,11.40
2018-04-16T01:25:43.363Z,12.60
2018-04-16T01:28:16.564Z,10.40
2018-04-16T01:30:49.755Z,14.20
2018-04-16T01:33:23.648Z,13.43
2018-04-16T01:35:56.745Z,12.33
2018-04-16T01:38:29.794Z,11.73
2018-04-16T01:41:13.819Z,15.13
2018-04-16T01:43:46.858Z,11.23
2018-04-16T01:46:20.052Z,10.47
2018-04-16T01:48:53.248Z,10.63
2018-04-16T01:51:26.263Z,12.40
2018-04-16T01:53:59.481Z,11.07
2018-04-16T01:56:32.706Z,13.53
2018-04-16T01:59:05.859Z,12.10
2018-04-16T02:01:39.014Z,11.00
2018-04-16T02:04:12.218Z,11.10
2018-04-16T02:06:45.379Z,9.97
2018-04-16T02:09:18.455Z,10.07
2018-04-16T02:11:51.682Z,10.70
2018-04-16T02:14:24.835Z,11.67
2018-04-16T02:16:58.039Z,11.17
2018-04-16T02:19:31.240Z,12.83
2018-04-16T02:22:04.422Z,13.40
2018-04-16T02:24:37.628Z,11.73
2018-04-16T02:27:10.668Z,10.73
2018-04-16T02:29:43.883Z,13.87
2018-04-16T02:32:17.941Z,13.37
2018-04-16T02:34:50.995Z,10.27
2018-04-16T02:37:24.074Z,10.47
2018-04-16T02:39:57.886Z,10.60
2018-04-16T02:42:30.946Z,14.33
2018-04-16T02:45:04.189Z,12.50
2018-04-16T02:47:37.311Z,13.93
2018-04-16T02:50:10.558Z,11.53
2018-04-16T02:52:43.640Z,18.50
2018-04-16T02:55:17.570Z,10.87
2018-04-16T02:57:50.770Z,11.67
2018-04-16T03:00:23.830Z,12.03
2018-04-16T03:02:57.049Z,12.70
2018-04-16T03:05:30.214Z,13.60
2018-04-16T03:08:04.039Z,12.13
2018-04-16T03:10:37.195Z,11.00
2018-04-16T03:13:11.075Z,14.30
2018-04-16T03:15:44.331Z,11.80
2018-04-16T03:18:17.379Z,14.93
2018-04-16T03:20:50.647Z,12.37
2018-04-16T03:23:23.819Z,14.63
2018-04-16T03:28:57.836Z,12.67
2018-04-16T03:31:30.943Z,11.20
2018-04-16T03:34:04.114Z,12.03
2018-04-16T03:36:37.287Z,11.73
2018-04-16T03:39:10.398Z,12.17
2018-04-16T03:41:43.604Z,12.97
2018-04-16T03:44:16.766Z,14.53
2018-04-16T03:46:49.966Z,13.60
2018-04-16T03:49:23.213Z,13.73
2018-04-16T03:51:56.459Z,14.80
2018-04-16T03:54:23.916Z,12.83
2018-04-16T03:56:51.366Z,13.30
2018-04-16T03:59:18.819Z,14.90
2018-04-16T04:01:46.270Z,15.77
2018-04-16T04:04:14.488Z,11.20
2018-04-16T04:06:41.935Z,14.90
2018-04-16T04:09:09.431Z,14.27
2018-04-16T04:11:36.830Z,10.77
2018-04-16T04:14:05.061Z,14.63
2018-04-16T04:16:32.504Z,10.87
2018-04-16T04:18:59.963Z,12.63
2018-04-16T04:21:27.429Z,14.73
2018-04-16T04:24:06.808Z,14.57
2018-04-16T04:26:46.269Z,17.20
2018-04-16T04:29:26.312Z,15.07
2018-04-16T04:31:54.513Z,14.37
2018-04-16T04:34:21.992Z,13.57
2018-04-16T04:36:49.444Z,14.13
2018-04-16T04:39:16.902Z,14.50
2018-04-16T04:41:44.354Z,18.13
2018-04-16T04:44:11.813Z,13.43
2018-04-16T04:46:39.260Z,14.73
2018-04-16T04:49:07.470Z,16.80
2018-04-16T04:51:34.936Z,14.90
2018-04-16T04:54:02.386Z,14.90
2018-04-16T04:56:29.822Z,17.03
2018-04-16T04:58:57.269Z,14.87
2018-04-16T05:01:25.476Z,18.00
2018-04-16T05:03:52.922Z,15.17
2018-04-16T05:06:20.378Z,19.00
2018-04-16T05:08:48.619Z,16.40
2018-04-16T05:11:16.083Z,17.43
2018-04-16T05:13:43.531Z,18.90
2018-04-16T05:16:10.989Z,17.07
2018-04-16T05:18:38.453Z,15.37
2018-04-16T05:21:05.907Z,15.77
2018-04-16T05:23:33.356Z,16.83
2018-04-16T05:26:00.837Z,15.27
2018-04-16T05:28:28.299Z,17.30
2018-04-16T05:30:55.743Z,18.37
2018-04-16T05:33:23.295Z,20.50
2018-04-16T05:35:50.743Z,19.93
2018-04-16T05:38:18.983Z,18.30
2018-04-16T05:40:46.442Z,20.13
2018-04-16T05:43:13.869Z,18.43
2018-04-16T05:45:41.325Z,18.10
2018-04-16T05:48:08.779Z,17.13
2018-04-16T05:50:36.227Z,17.60
2018-04-16T05:53:03.690Z,22.70
2018-04-16T05:55:31.194Z,22.90
2018-04-16T05:57:58.630Z,22.37
2018-04-16T06:00:26.118Z,21.50
2018-04-16T06:02:53.525Z,21.37
2018-04-16T06:05:21.765Z,21.57
2018-04-16T06:07:50.722Z,21.33
2018-04-16T06:10:18.196Z,19.87
2018-04-16T06:12:45.634Z,21.43
2018-04-16T06:15:13.851Z,21.13
2018-04-16T06:17:41.322Z,19.33
2018-04-16T06:20:08.823Z,21.87
2018-04-16T06:22:37.027Z,22.80
2018-04-16T06:25:04.493Z,24.30
2018-04-16T06:27:32.013Z,23.43
2018-04-16T06:29:59.396Z,29.17
2018-04-16T06:32:26.855Z,26.43
2018-04-16T06:34:54.343Z,27.40
2018-04-16T06:37:21.803Z,29.73
2018-04-16T06:39:49.258Z,26.10
2018-04-16T06:42:16.707Z,25.67
2018-04-16T06:44:44.198Z,26.23
2018-04-16T06:47:11.633Z,24.70
2018-04-16T06:49:39.091Z,23.53
2018-04-16T06:52:06.544Z,25.10
2018-04-16T06:54:34.746Z,27.23
2018-04-16T06:57:02.194Z,23.90
2018-04-16T06:59:29.639Z,21.07
2018-04-16T07:01:57.929Z,22.93
2018-04-16T07:04:25.343Z,20.10
2018-04-16T07:06:52.792Z,20.07
2018-04-16T07:09:20.338Z,22.80
2018-04-16T07:11:47.778Z,23.83
2018-04-16T07:14:15.222Z,21.77
2018-04-16T07:16:43.494Z,19.57
2018-04-16T07:19:11.717Z,18.33
2018-04-16T07:21:39.175Z,18.80
2018-04-16T07:24:06.610Z,19.67
2018-04-16T07:26:34.827Z,16.70
2018-04-16T07:29:02.284Z,13.00
2018-04-16T07:31:29.734Z,11.03
2018-04-16T07:33:57.171Z,10.67
2018-04-16T07:36:25.390Z,11.47
2018-04-16T07:38:52.848Z,10.23
2018-04-16T07:41:20.286Z,9.80
2018-04-16T07:43:47.755Z,10.20
2018-04-16T07:46:15.953Z,11.23
2018-04-16T07:48:43.392Z,8.80
2018-04-16T07:51:10.839Z,9.90
2018-04-16T07:53:38.302Z,8.20
2018-04-16T07:56:05.766Z,10.37
2018-04-16T07:58:33.206Z,10.70
2018-04-16T08:01:01.417Z,9.50
2018-04-16T08:03:28.867Z,10.93
2018-04-16T08:05:56.329Z,7.10
2018-04-16T08:08:23.810Z,6.73
2018-04-16T08:10:51.253Z,10.63
2018-04-16T08:13:18.687Z,8.70
2018-04-16T08:15:46.933Z,10.47
2018-04-16T08:18:14.395Z,12.13
2018-04-16T08:20:41.837Z,13.07
2018-04-16T08:23:09.293Z,10.40
2018-04-16T08:25:36.739Z,9.10
2018-04-16T08:28:04.173Z,9.37
2018-04-16T08:30:32.383Z,7.90
2018-04-16T08:32:59.823Z,7.73
2018-04-16T08:35:28.034Z,9.73
2018-04-16T08:37:55.483Z,9.13
2018-04-16T08:40:22.927Z,12.10
2018-04-16T08:42:51.157Z,12.33
2018-04-16T08:45:18.638Z,11.77
2018-04-16T08:47:46.918Z,10.77
2018-04-16T08:50:14.435Z,13.30
2018-04-16T08:52:41.862Z,8.60
2018-04-16T08:55:10.079Z,11.30
2018-04-16T08:57:37.533Z,11.10
2018-04-16T09:00:04.975Z,12.70
2018-04-16T09:02:33.196Z,11.27
2018-04-16T09:05:00.639Z,9.73
2018-04-16T09:07:28.106Z,8.90
2018-04-16T09:09:55.534Z,12.27
2018-04-16T09:12:23.762Z,10.30
2018-04-16T09:14:51.299Z,14.60
2018-04-16T09:17:18.762Z,14.60
2018-04-16T09:19:46.955Z,11.77
2018-04-16T09:22:14.411Z,17.40
2018-04-16T09:24:41.849Z,14.70
2018-04-16T09:27:09.301Z,16.03
2018-04-16T09:29:36.745Z,14.07
2018-04-16T09:32:04.202Z,17.63
2018-04-16T09:34:31.646Z,14.37
2018-04-16T09:36:59.093Z,13.93
2018-04-16T09:39:26.573Z,18.03
2018-04-16T09:41:54.019Z,16.00
2018-04-16T09:44:22.403Z,15.17
2018-04-16T09:46:49.938Z,13.20
2018-04-16T09:49:17.382Z,12.90
2018-04-16T09:51:44.831Z,12.13
2018-04-16T09:54:13.075Z,12.63
2018-04-16T09:56:40.514Z,13.20
2018-04-16T09:59:07.971Z,15.00
2018-04-16T10:01:38.282Z,13.50
2018-04-16T10:04:05.743Z,19.93
2018-04-16T10:06:33.188Z,16.83
2018-04-16T10:09:01.402Z,13.33
2018-04-16T10:11:28.953Z,8.90
2018-04-16T10:13:56.455Z,13.77
2018-04-16T10:16:23.903Z,13.70
2018-04-16T10:18:52.061Z,16.83
2018-04-16T10:21:19.506Z,14.10
2018-04-16T10:23:46.950Z,18.97
2018-04-16T10:26:15.158Z,18.37
2018-04-16T10:28:42.659Z,14.23
2018-04-16T10:31:10.111Z,17.83
2018-04-16T10:33:37.599Z,19.23
2018-04-16T10:36:05.058Z,16.80
2018-04-16T10:38:32.591Z,17.70
2018-04-16T10:41:00.046Z,16.23
2018-04-16T10:43:27.505Z,10.17
2018-04-16T10:45:54.986Z,14.80
2018-04-16T10:48:22.448Z,10.23
2018-04-16T10:50:49.889Z,15.10
2018-04-16T10:53:17.343Z,17.70
2018-04-16T10:55:44.791Z,16.70
2018-04-16T10:58:12.263Z,17.93
2018-04-16T11:00:39.703Z,23.33
2018-04-16T11:03:07.230Z,18.63
2018-04-16T11:05:34.675Z,17.67
2018-04-16T11:08:02.133Z,20.90
2018-04-16T11:10:29.598Z,18.03
2018-04-16T11:12:57.159Z,17.90
2018-04-16T11:15:24.606Z,18.43
2018-04-16T11:17:52.061Z,11.07
2018-04-16T11:20:19.498Z,16.60
2018-04-16T11:22:46.942Z,17.57
2018-04-16T11:25:15.159Z,15.73
2018-04-16T11:27:42.621Z,15.00
2018-04-16T11:30:10.082Z,17.40
2018-04-16T11:32:37.566Z,19.13
2018-04-16T11:35:05.023Z,14.60
2018-04-16T11:37:32.460Z,14.23
2018-04-16T11:39:59.912Z,13.27
2018-04-16T11:42:27.348Z,11.40
2018-04-16T11:44:55.591Z,12.20
2018-04-16T11:47:23.050Z,11.10
2018-04-16T11:49:50.502Z,12.30
2018-04-16T11:52:18.043Z,15.47
2018-04-16T11:54:45.476Z,14.13
2018-04-16T11:57:13.718Z,14.40
2018-04-16T11:59:41.171Z,13.30
2018-04-16T12:02:08.664Z,15.63
2018-04-16T12:04:36.287Z,13.23
2018-04-16T12:07:03.758Z,12.03
2018-04-16T12:09:31.234Z,14.13
2018-04-16T12:11:58.691Z,16.57
2018-04-16T12:14:26.245Z,12.13
2018-04-16T12:16:53.730Z,13.90
2018-04-16T12:19:21.954Z,16.83
2018-04-16T12:21:49.459Z,14.53
2018-04-16T12:24:17.014Z,15.53
2018-04-16T12:26:44.490Z,15.03
2018-04-16T12:29:12.020Z,12.90
2018-04-16T12:31:39.510Z,10.43
2018-04-16T12:34:06.954Z,10.30
2018-04-16T12:36:34.410Z,10.53
2018-04-16T12:39:01.929Z,10.93
2018-04-16T12:41:29.326Z,12.70
2018-04-16T12:43:56.783Z,12.40
2018-04-16T12:46:24.282Z,11.87
2018-04-16T12:48:51.865Z,10.80
2018-04-16T12:51:19.299Z,14.07
2018-04-16T12:53:46.777Z,7.60
2018-04-16T12:56:14.219Z,13.83
2018-04-16T12:58:41.658Z,9.93
2018-04-16T13:01:09.133Z,11.40
2018-04-16T13:03:36.578Z,12.37
2018-04-16T13:06:04.031Z,11.77
2018-04-16T13:08:31.481Z,11.20
2018-04-16T13:10:59.694Z,9.07
2018-04-16T13:13:27.127Z,13.07
2018-04-16T13:15:54.589Z,11.00
2018-04-16T13:18:22.073Z,17.63
2018-04-16T13:20:49.525Z,12.97
2018-04-16T13:23:17.369Z,10.00
2018-04-16T13:25:45.588Z,10.30
2018-04-16T13:28:13.030Z,11.20
2018-04-16T13:30:40.513Z,13.37
2018-04-16T13:33:08.060Z,7.40
2018-04-16T13:35:35.507Z,11.40
2018-04-16T13:38:02.948Z,8.07
2018-04-16T13:40:31.160Z,13.57
2018-04-16T13:42:58.657Z,10.13
2018-04-16T13:45:26.063Z,8.80
2018-04-16T13:47:53.507Z,11.83
2018-04-16T13:50:21.731Z,8.00
2018-04-16T13:52:49.161Z,10.77
2018-04-16T13:55:16.607Z,9.27
2018-04-16T13:57:44.806Z,9.43
2018-04-16T14:00:12.255Z,8.37
2018-04-16T14:02:40.452Z,7.70
2018-04-16T14:05:07.909Z,7.23
2018-04-16T14:07:35.440Z,7.50
2018-04-16T14:10:02.899Z,10.40
2018-04-16T14:12:30.344Z,9.87
2018-04-16T14:14:57.799Z,8.20
2018-04-16T14:17:25.258Z,12.43
2018-04-16T14:19:52.698Z,8.00
2018-04-16T14:22:20.155Z,4.90
2018-04-16T14:24:47.643Z,10.17
2018-04-16T14:27:15.083Z,7.40
2018-04-16T14:29:42.533Z,6.00
2018-04-16T14:32:10.023Z,7.40
2018-04-16T14:34:37.478Z,8.50
2018-04-16T14:37:04.938Z,11.60
2018-04-16T14:39:32.425Z,8.47
2018-04-16T14:42:00.575Z,11.23
2018-04-16T14:44:28.014Z,6.70
2018-04-16T14:46:55.459Z,8.87
2018-04-16T14:49:22.910Z,7.33
2018-04-16T14:51:50.354Z,4.33
2018-04-16T14:54:17.800Z,14.03
2018-04-16T15:56:38.578Z,7.70
2018-04-16T15:59:06.020Z,8.53
2018-04-16T16:01:33.622Z,8.27
2018-04-16T16:04:01.942Z,7.53
2018-04-16T16:06:29.426Z,9.73
2018-04-16T16:08:56.868Z,10.80
2018-04-16T16:11:24.357Z,6.00
2018-04-16T16:13:51.814Z,10.83
2018-04-16T16:16:19.288Z,9.47
2018-04-16T16:18:46.738Z,5.53
2018-04-16T16:21:14.190Z,9.97
2018-04-16T16:23:41.667Z,10.07
2018-04-16T16:26:09.110Z,6.53
2018-04-16T16:28:36.591Z,12.00
2018-04-16T16:31:04.023Z,4.53
2018-04-16T16:33:31.467Z,10.60
2018-04-16T16:35:58.918Z,8.10
2018-04-16T16:38:26.358Z,5.00
2018-04-16T16:40:53.817Z,9.67
2018-04-16T16:43:21.257Z,5.90
2018-04-16T16:45:48.724Z,11.43
2018-04-16T16:48:16.174Z,5.73
2018-04-16T16:50:43.613Z,8.43
2018-04-16T16:53:11.094Z,9.87
2018-04-16T16:55:38.520Z,7.53
2018-04-16T16:58:05.959Z,4.80
2018-04-16T17:00:34.185Z,7.50
2018-04-16T17:03:01.659Z,7.03
2018-04-16T17:05:29.109Z,8.73
2018-04-16T17:07:56.567Z,11.00
2018-04-16T17:10:24.038Z,9.90
2018-04-16T17:12:51.510Z,8.20
2018-04-16T17:15:18.976Z,6.83
2018-04-16T17:17:46.427Z,10.87
2018-04-16T17:20:13.883Z,7.90
2018-04-16T17:22:41.323Z,9.95
2018-04-16T17:25:08.806Z,10.23
2018-04-16T17:27:36.253Z,8.97
2018-04-16T17:30:03.739Z,7.33
2018-04-16T17:32:31.183Z,7.83
2018-04-16T17:34:58.650Z,8.93
2018-04-16T17:37:26.139Z,13.77
2018-04-16T17:39:53.566Z,12.47
2018-04-16T17:42:21.023Z,9.03
2018-04-16T17:44:48.522Z,8.93
2018-04-16T17:47:15.970Z,7.37
2018-04-16T17:49:43.435Z,15.30
2018-04-16T17:52:10.884Z,13.30
2018-04-16T17:54:38.320Z,9.10
2018-04-16T17:57:05.778Z,9.60
2018-04-16T17:59:33.277Z,9.77
2018-04-16T18:02:00.739Z,11.00
2018-04-16T18:04:28.214Z,10.03
2018-04-16T18:06:55.692Z,12.60
2018-04-16T18:09:23.899Z,12.83
2018-04-16T18:11:51.351Z,11.50
2018-04-16T18:14:18.797Z,12.00
2018-04-16T18:16:47.011Z,14.93
2018-04-16T18:19:14.467Z,10.90
2018-04-16T18:21:41.954Z,18.27
2018-04-16T18:24:09.519Z,12.33
2018-04-16T18:26:36.950Z,9.17
2018-04-16T18:29:04.403Z,11.50
2018-04-16T18:31:31.853Z,10.67
2018-04-16T18:34:00.157Z,9.07
2018-04-16T18:36:27.574Z,13.63
2018-04-16T18:38:55.043Z,10.17
2018-04-16T18:41:22.479Z,10.93
2018-04-16T18:43:49.921Z,8.13
2018-04-16T18:46:17.367Z,14.00
2018-04-16T18:48:44.813Z,10.10
2018-04-16T18:51:13.015Z,11.03
2018-04-16T18:53:40.469Z,9.80
2018-04-16T18:56:07.914Z,14.60
2018-04-16T18:58:35.366Z,11.63
2018-04-16T19:01:03.602Z,8.83
2018-04-16T19:03:31.038Z,13.13
2018-04-16T19:05:58.474Z,9.97
2018-04-16T19:08:25.931Z,13.83
2018-04-16T19:10:54.145Z,8.47
2018-04-16T19:13:21.578Z,14.10
2018-04-16T19:15:49.096Z,8.97
2018-04-16T19:18:17.255Z,11.90
2018-04-16T19:20:50.405Z,14.93
2018-04-16T19:23:18.622Z,21.10
2018-04-16T19:25:46.155Z,18.33
2018-04-16T19:28:15.458Z,12.83
2018-04-16T19:30:42.903Z,17.30
2018-04-16T19:33:16.800Z,16.37
2018-04-16T19:35:44.233Z,20.27
2018-04-16T19:38:11.727Z,19.67
2018-04-16T19:40:39.951Z,17.80
2018-04-16T19:43:07.445Z,23.67
2018-04-16T19:45:36.331Z,19.10
2018-04-16T19:48:03.827Z,28.40
2018-04-16T19:50:32.031Z,21.30
2018-04-16T19:52:59.483Z,27.70
2018-04-16T19:55:26.954Z,31.50
2018-04-16T19:58:00.039Z,25.80
2018-04-16T20:00:27.496Z,32.93
2018-04-16T20:03:00.546Z,28.00
2018-04-16T20:05:28.027Z,22.43
2018-04-16T20:07:55.517Z,25.07
2018-04-16T20:10:22.950Z,23.03
2018-04-16T20:12:51.182Z,22.67
2018-04-16T20:15:18.619Z,19.43
2018-04-16T20:17:46.050Z,18.70
2018-04-16T20:20:14.370Z,18.63
2018-04-16T20:22:41.810Z,17.93
2018-04-16T20:25:10.014Z,15.10
2018-04-16T20:27:37.449Z,18.80
2018-04-16T20:30:04.903Z,17.90
2018-04-16T20:32:33.120Z,16.67
2018-04-16T20:35:00.576Z,19.63
2018-04-16T20:37:28.018Z,14.27
2018-04-16T20:39:55.475Z,13.30
2018-04-16T20:42:22.930Z,16.03
2018-04-16T20:44:51.227Z,13.13
2018-04-16T20:47:18.649Z,14.83
2018-04-16T20:49:46.122Z,21.07
2018-04-16T20:52:14.347Z,24.50
2018-04-16T20:54:41.802Z,18.53
2018-04-16T20:57:09.270Z,19.23
2018-04-16T20:59:36.702Z,15.60
2018-04-16T21:02:04.197Z,20.33
2018-04-16T21:04:31.666Z,17.40
2018-04-16T21:06:59.938Z,17.50
2018-04-16T21:09:27.382Z,17.27
2018-04-16T21:11:54.818Z,18.93
2018-04-16T21:14:23.116Z,14.80
2018-04-16T21:16:50.554Z,22.43
2018-04-16T21:19:18.768Z,24.37
2018-04-16T21:21:46.221Z,23.60
2018-04-16T21:24:13.661Z,22.03
2018-04-16T21:26:41.107Z,25.60
2018-04-16T21:29:09.343Z,22.83
2018-04-16T21:31:36.790Z,22.00
2018-04-16T21:34:04.250Z,19.23
2018-04-16T21:36:31.695Z,23.07
2018-04-16T21:38:59.138Z,23.97
2018-04-16T21:41:27.343Z,17.30
2018-04-16T21:43:54.806Z,18.70
2018-04-16T21:46:22.250Z,22.50
2018-04-16T21:48:50.466Z,17.90
2018-04-16T21:51:17.893Z,15.63
2018-04-16T21:53:45.355Z,15.67
2018-04-16T21:56:12.799Z,20.70
2018-04-16T21:58:41.039Z,14.90
2018-04-16T22:01:08.481Z,16.37
2018-04-16T22:03:35.922Z,15.67
2018-04-16T22:06:03.490Z,15.60
2018-04-16T22:08:30.915Z,16.23
2018-04-16T22:10:59.131Z,14.10
2018-04-16T22:13:26.570Z,12.13
2018-04-16T22:15:54.791Z,15.50
2018-04-16T22:18:22.281Z,12.23
2018-04-16T22:20:49.740Z,16.90
2018-04-16T22:23:17.672Z,19.27
2018-04-16T22:25:45.125Z,21.23
2018-04-16T22:28:12.546Z,18.77
2018-04-16T22:30:40.092Z,12.03
2018-04-16T22:33:07.522Z,18.17
2018-04-16T22:35:34.979Z,17.07
2018-04-16T22:38:02.450Z,16.53
2018-04-16T22:40:29.895Z,13.37
2018-04-16T22:42:57.349Z,13.10
2018-04-16T22:45:24.797Z,20.97
2018-04-16T22:47:53.019Z,14.10
2018-04-16T22:50:20.476Z,12.97
2018-04-16T22:52:47.927Z,15.43
2018-04-16T22:55:15.380Z,15.57
2018-04-16T22:57:42.823Z,16.53
2018-04-16T23:00:11.058Z,14.20
2018-04-16T23:02:38.490Z,15.17
2018-04-16T23:05:05.938Z,14.30
2018-04-16T23:07:33.385Z,14.80
2018-04-16T23:10:01.604Z,17.00
2018-04-16T23:12:29.035Z,24.00
2018-04-16T23:14:56.479Z,10.70
2018-04-16T23:17:24.787Z,18.83
2018-04-16T23:19:52.351Z,13.93
2018-04-16T23:22:19.822Z,18.03
2018-04-16T23:24:47.274Z,17.83
2018-04-16T23:27:14.784Z,19.43
2018-04-16T23:29:42.187Z,16.87
2018-04-16T23:32:10.371Z,17.33
2018-04-16T23:34:37.832Z,22.07
2018-04-16T23:37:05.273Z,23.03
2018-04-16T23:39:33.475Z,17.30
2018-04-16T23:42:01.035Z,16.50
2018-04-16T23:44:28.483Z,12.40
2018-04-16T23:46:56.690Z,12.63
2018-04-16T23:49:24.137Z,12.63
2018-04-16T23:51:51.588Z,12.87
2018-04-16T23:54:19.441Z,12.90
2018-04-16T23:56:47.709Z,16.67
2018-04-16T23:59:16.692Z,13.80
